»·PEaware :: N80VJ L88-KSBP

N80VJ :: L88-KSBP

FLIGHT INFORMATION

Flight Status: Arrived
Operator: Privately registered:
United States
More flights under this callsign
Pilot: Christopher S. (28961)
Aircraft: CIRRUS SR-20
(SR20)
More flights by this aircraft type
Origin: L88 New Cuyama
United States
Destination: KSBP San Luis Co Regl
United States
More flights between these airports :: More routes between these airports
Route: DIRECT
File this flight plan on PilotEdge
Remarks:
Altitude:
(Current/Filed)
6,500ft
Speed:
(Current/Filed)
150kts
Departed: 06-May-20 10:50 AM
Arrived: 06-May-20 11:20 AM
Distance/Time
Traveled:
50nm/0:30
Distance/Time
To Go:
Arrived

Flight Plot

Page will automatically refresh every two minutes.


Map Options




Map Legend


Flown Route
Filed Route
Departure Airport
Arrival Airport
Navaid (VOR, NDB)
Fix

Horizontal Profiles

Position Reports

Time Latitude Longitude Heading Altitude Ground
Speed
06-May-20 10:41 34.942763 -119.690299 174 2155ft 0kts
06-May-20 10:42 34.942763 -119.690299 174 2155ft 0kts
06-May-20 10:43 34.942763 -119.690299 174 2155ft 0kts
06-May-20 10:44 34.942763 -119.690299 174 2155ft 0kts
06-May-20 10:45 34.942763 -119.690299 174 2155ft 0kts
06-May-20 10:46 34.942611 -119.690681 128 2155ft 0kts
06-May-20 10:47 34.940035 -119.685774 118 2174ft 22kts
06-May-20 10:48 34.937682 -119.680157 114 2198ft 7kts
06-May-20 10:49 34.939021 -119.683335 297 2186ft 68kts
06-May-20 10:50 34.950483 -119.714018 293 2823ft 110kts
06-May-20 10:51 34.962219 -119.748662 293 3715ft 111kts
06-May-20 10:52 34.971930 -119.777063 293 4396ft 112kts
06-May-20 10:53 34.971930 -119.777063 293 4396ft 112kts
06-May-20 10:54 34.973422 -119.781435 293 4498ft 112kts
06-May-20 10:55 34.982807 -119.809035 293 5118ft 112kts
06-May-20 10:56 34.994524 -119.844300 292 5858ft 113kts
06-May-20 10:57 35.006021 -119.880247 292 6435ft 123kts
06-May-20 10:58 35.019974 -119.923369 292 6436ft 146kts
06-May-20 10:59 35.035345 -119.970784 292 6435ft 151kts
06-May-20 11:00 35.050771 -120.018606 292 6438ft 151kts
06-May-20 11:01 35.064400 -120.064255 290 6444ft 149kts
06-May-20 11:02 35.076451 -120.109127 290 6449ft 146kts
06-May-20 11:03 35.086758 -120.154548 286 6454ft 146kts
06-May-20 11:04 35.095460 -120.200872 287 6456ft 144kts
06-May-20 11:05 35.103626 -120.246581 286 6468ft 143kts
06-May-20 11:06 35.110960 -120.287698 286 6465ft 124kts
06-May-20 11:07 35.117751 -120.326147 286 6469ft 119kts
06-May-20 11:08 35.124342 -120.363287 286 6469ft 118kts
06-May-20 11:09 35.131255 -120.400924 286 6472ft 117kts
06-May-20 11:10 35.138300 -120.438076 287 6476ft 116kts
06-May-20 11:11 35.146154 -120.467473 306 6148ft 97kts
06-May-20 11:12 35.159887 -120.495711 310 4866ft 103kts
06-May-20 11:13 35.173187 -120.522581 300 3707ft 97kts
06-May-20 11:14 35.186185 -120.549341 302 2480ft 99kts
06-May-20 11:15 35.200024 -120.575536 303 1367ft 92kts
06-May-20 11:16 35.213741 -120.599583 304 963ft 89kts
06-May-20 11:17 35.225866 -120.620647 303 484ft 64kts
06-May-20 11:18 35.235337 -120.637481 304 214ft 43kts
06-May-20 11:19 35.237531 -120.639933 354 214ft 0kts
06-May-20 11:20 35.237531 -120.639933 354 214ft 0kts
06-May-20 11:21 35.238735 -120.641046 299 214ft 0kts
06-May-20 11:22 35.238735 -120.641046 299 214ft 0kts
06-May-20 11:23 35.238735 -120.641046 299 214ft 0kts
06-May-20 11:24 35.238735 -120.641046 299 214ft 0kts
06-May-20 11:25 35.238735 -120.641046 299 214ft 0kts
06-May-20 11:26 35.238735 -120.641046 299 214ft 0kts
06-May-20 11:27 35.238735 -120.641046 299 214ft 0kts
06-May-20 11:28 35.238735 -120.641046 299 214ft 0kts
06-May-20 11:29 35.238735 -120.641046 299 214ft 0kts
06-May-20 11:30 35.238735 -120.641046 299 214ft 0kts
06-May-20 11:31 35.238735 -120.641046 299 214ft 0kts
06-May-20 11:32 35.238735 -120.641046 299 214ft 0kts
06-May-20 11:33 35.238735 -120.641046 299 214ft 0kts
06-May-20 11:34 35.238735 -120.641046 299 214ft 0kts

Navigation Log

Ident Type
Flight plan parsing failed, navigation log unavailable